Time;durP1;ratioP1;P1;durP2;ratioP2;P2;SDS_P1;SDS_P2;PMS_P1;PMS_P2;Temp;Humidity;BMP_temperature;BMP_pressure;BME280_temperature;BME280_humidity;BME280_pressure;Samples;Min_cycle;Max_cycle;Signal;HPM_P1;HPM_P2
2022/09/04 00:01:21;;;;;;;;;12.75;9.75;;;;;20.66;58.15;100529.41;5034126;28;45420;-76
2022/09/04 00:03:57;;;;;;;;;7.50;7.50;;;;;20.59;58.20;100526.22;4954766;28;45473;-77
2022/09/04 00:06:31;;;;;;;;;15.00;14.00;;;;;20.54;58.57;100522.97;4953941;28;45357;-77
2022/09/04 00:09:08;;;;;;;;;12.25;9.00;;;;;20.44;58.18;100526.28;4938670;28;46417;-77
2022/09/04 00:11:58;;;;;;;;;12.75;11.25;;;;;20.41;58.52;100538.09;4953403;28;45464;-77
2022/09/04 00:14:42;;;;;;;;;10.00;10.00;;;;;20.37;58.62;100537.41;4953868;28;45472;-77
2022/09/04 00:17:40;;;;;;;;;9.00;7.50;;;;;20.31;59.06;100535.09;4954786;28;45839;-77
2022/09/04 00:20:25;;;;;;;;;10.50;8.50;;;;;20.24;59.12;100540.00;4953999;28;45646;-77
2022/09/04 00:23:26;;;;;;;;;10.50;8.75;;;;;20.17;59.06;100548.50;4954908;28;45444;-77
2022/09/04 00:26:07;;;;;;;;;9.25;6.00;;;;;20.10;59.04;100542.63;4952992;28;45453;-76
2022/09/04 00:28:41;;;;;;;;;11.00;10.75;;;;;19.97;59.45;100536.31;4952295;28;45526;-78
2022/09/04 00:31:16;;;;;;;;;11.50;10.50;;;;;19.99;59.94;100556.69;4954318;28;46316;-78
2022/09/04 00:33:50;;;;;;;;;7.25;7.25;;;;;19.93;59.86;100554.38;4954095;28;45874;-78
2022/09/04 00:36:20;;;;;;;;;12.25;11.50;;;;;19.85;60.22;100559.34;4953855;28;45409;-77
2022/09/04 00:38:54;;;;;;;;;11.75;11.00;;;;;19.81;60.02;100557.78;4953786;28;45610;-77
2022/09/04 00:41:22;;;;;;;;;17.00;13.75;;;;;19.77;60.72;100561.56;5014922;28;45425;-77
2022/09/04 00:44:12;;;;;;;;;8.25;8.25;;;;;19.75;60.24;100568.84;5035534;28;45371;-76
2022/09/04 00:46:58;;;;;;;;;10.00;10.00;;;;;19.74;61.15;100561.75;5036748;28;45470;-77
2022/09/04 00:49:45;;;;;;;;;15.25;12.00;;;;;19.66;60.91;100562.19;5035940;28;45476;-76
2022/09/04 00:52:41;;;;;;;;;9.25;9.00;;;;;19.65;60.87;100569.38;5035307;28;46326;-77
2022/09/04 00:55:58;;;;;;;;;9.25;9.25;;;;;19.58;61.00;100567.16;5017808;28;45383;-75
2022/09/04 00:59:13;;;;;;;;;11.00;10.50;;;;;19.52;61.07;100563.88;4970712;28;45407;-76
2022/09/04 01:01:39;;;;;;;;;13.50;10.75;;;;;19.47;61.08;100565.09;4953179;28;45479;-76
2022/09/04 01:04:11;;;;;;;;;11.50;11.50;;;;;19.48;60.71;100577.53;4954252;28;45405;-75
2022/09/04 01:06:57;;;;;;;;;14.25;12.25;;;;;19.44;60.99;100582.22;4959719;28;45381;-75
2022/09/04 01:09:37;;;;;;;;;12.50;12.00;;;;;19.41;60.86;100587.75;4956825;28;45591;-76
2022/09/04 01:12:11;;;;;;;;;13.50;10.00;;;;;19.32;60.82;100583.75;4971506;28;45455;-75
2022/09/04 01:15:14;;;;;;;;;9.50;8.25;;;;;19.32;61.00;100590.94;4973351;28;45535;-74
2022/09/04 01:18:09;;;;;;;;;11.50;11.50;;;;;19.30;60.82;100590.19;4941446;28;45424;-75
2022/09/04 01:20:43;;;;;;;;;6.50;6.50;;;;;19.29;60.40;100593.78;4933896;28;45702;-76
2022/09/04 01:23:30;;;;;;;;;13.25;10.75;;;;;19.24;60.35;100591.38;4953210;28;45519;-74
2022/09/04 01:26:08;;;;;;;;;10.00;10.00;;;;;19.18;60.53;100600.59;4955949;28;45502;-75
2022/09/04 01:28:51;;;;;;;;;12.00;9.00;;;;;19.17;61.03;100606.91;4954692;28;45464;-75
2022/09/04 01:31:35;;;;;;;;;11.75;9.75;;;;;19.14;60.67;100606.22;4945605;28;45434;-75
2022/09/04 01:34:34;;;;;;;;;8.00;7.75;;;;;19.14;60.63;100600.88;5034016;28;45461;-76
2022/09/04 01:37:11;;;;;;;;;11.25;11.25;;;;;19.09;60.39;100597.59;5026416;28;46318;-77
2022/09/04 01:39:41;;;;;;;;;11.75;9.75;;;;;19.05;60.38;100602.22;5034324;28;45324;-77
2022/09/04 01:42:42;;;;;;;;;12.00;11.00;;;;;18.99;60.27;100600.78;5033426;28;45578;-77
2022/09/04 01:45:09;;;;;;;;;7.50;7.50;;;;;18.89;60.30;100601.34;5033764;28;45682;-77
2022/09/04 01:47:47;;;;;;;;;12.00;11.00;;;;;18.90;60.71;100603.94;5035282;28;45509;-76
2022/09/04 01:50:22;;;;;;;;;12.50;12.00;;;;;18.83;60.62;100605.19;5011544;28;45433;-75
2022/09/04 01:53:13;;;;;;;;;9.50;8.00;;;;;18.81;60.82;100597.25;5014089;28;45540;-77
2022/09/04 01:55:42;;;;;;;;;12.25;12.00;;;;;18.76;60.85;100603.78;5020283;28;45588;-77
2022/09/04 01:58:15;;;;;;;;;9.75;7.50;;;;;18.76;61.05;100614.50;5033940;28;45536;-77
2022/09/04 02:00:55;;;;;;;;;8.00;8.00;;;;;18.76;61.16;100612.69;5030035;28;45578;-76
2022/09/04 02:03:24;;;;;;;;;11.00;8.25;;;;;18.74;60.82;100611.06;5033440;28;45422;-77
2022/09/04 02:06:15;;;;;;;;;7.50;7.50;;;;;18.76;60.96;100623.38;5033514;28;45464;-77
2022/09/04 02:09:10;;;;;;;;;11.25;9.00;;;;;18.76;61.07;100626.06;5032552;28;46769;-77
2022/09/04 02:11:38;;;;;;;;;11.00;7.00;;;;;18.76;61.25;100626.06;5033808;28;45353;-76
2022/09/04 02:14:32;;;;;;;;;10.75;10.75;;;;;18.73;61.79;100626.22;5033327;28;45738;-77
2022/09/04 02:17:22;;;;;;;;;10.25;10.25;;;;;18.74;60.79;100629.78;5032662;28;45503;-77
2022/09/04 02:20:16;;;;;;;;;8.00;8.00;;;;;18.74;61.03;100630.66;5033912;28;46448;-77
2022/09/04 02:23:00;;;;;;;;;7.50;6.50;;;;;18.74;60.98;100629.78;5034142;28;45466;-76
2022/09/04 02:25:41;;;;;;;;;9.00;7.25;;;;;18.57;61.22;100607.47;5031703;28;45471;-77
2022/09/04 02:28:44;;;;;;;;;6.50;6.50;;;;;18.69;60.60;100631.84;5033219;28;45525;-77
2022/09/04 02:31:09;;;;;;;;;8.25;8.00;;;;;18.67;60.99;100639.09;5033672;28;46198;-76
2022/09/04 02:33:59;;;;;;;;;7.00;7.00;;;;;18.65;60.41;100642.69;5034010;28;45418;-76
2022/09/04 02:36:46;;;;;;;;;7.25;6.00;;;;;18.67;60.10;100636.41;5032422;28;45616;-78
2022/09/04 02:39:49;;;;;;;;;10.25;7.00;;;;;18.69;60.43;100648.78;5018864;28;45432;-77
2022/09/04 02:42:43;;;;;;;;;4.00;4.00;;;;;18.64;59.55;100646.34;5033394;28;45898;-76
2022/09/04 02:45:23;;;;;;;;;5.00;5.00;;;;;18.63;60.00;100651.78;5017604;28;45475;-78
2022/09/04 02:47:54;;;;;;;;;7.50;5.50;;;;;18.58;59.83;100649.31;5030035;28;45473;-77
2022/09/04 02:50:38;;;;;;;;;6.00;6.00;;;;;18.54;60.43;100652.22;5016198;28;45656;-77
2022/09/04 02:53:53;;;;;;;;;5.25;5.25;;;;;18.53;59.89;100655.88;5013759;28;46019;-77
2022/09/04 02:57:00;;;;;;;;;7.25;7.00;;;;;18.53;60.58;100664.75;5012858;28;45487;-78
2022/09/04 02:59:53;;;;;;;;;7.25;6.00;;;;;18.56;59.90;100667.28;4991992;28;45528;-76
2022/09/04 03:02:34;;;;;;;;;5.50;5.50;;;;;18.57;60.14;100662.78;4972386;28;45365;-78
2022/09/04 03:05:35;;;;;;;;;5.25;5.25;;;;;18.55;59.20;100656.66;4972008;28;46275;-77
2022/09/04 03:08:15;;;;;;;;;4.50;3.00;;;;;18.52;59.82;100651.47;4919541;28;45539;-77
2022/09/04 03:11:29;;;;;;;;;6.25;6.25;;;;;18.51;59.51;100655.94;4931862;28;45433;-77
2022/09/04 03:14:27;;;;;;;;;6.75;6.75;;;;;18.50;59.30;100656.88;4856889;29;45401;-77
2022/09/04 03:17:14;;;;;;;;;3.00;3.00;;;;;18.49;59.11;100660.50;4819031;29;45747;-77
2022/09/04 03:19:52;;;;;;;;;8.25;6.50;;;;;18.50;59.31;100662.25;4820228;29;45767;-77
2022/09/04 03:22:26;;;;;;;;;5.75;5.00;;;;;18.49;59.26;100652.47;4819889;29;45489;-75
2022/09/04 03:25:22;;;;;;;;;5.00;5.00;;;;;18.48;59.45;100666.81;4819467;29;45394;-76
2022/09/04 03:27:47;;;;;;;;;7.00;3.50;;;;;18.45;60.00;100664.31;4819715;29;47563;-77
2022/09/04 03:30:14;;;;;;;;;7.25;6.00;;;;;18.42;58.96;100662.63;4804997;29;45538;-76
2022/09/04 03:33:06;;;;;;;;;6.75;6.75;;;;;18.44;58.65;100659.88;4820596;29;45449;-75
2022/09/04 03:35:47;;;;;;;;;6.75;6.25;;;;;18.48;59.44;100669.50;4833288;29;45544;-76
2022/09/04 03:38:41;;;;;;;;;9.00;5.50;;;;;18.51;59.23;100672.00;4855254;29;46346;-76
2022/09/04 03:41:18;;;;;;;;;5.25;5.00;;;;;18.49;58.55;100665.84;4859631;29;45480;-77
2022/09/04 03:43:54;;;;;;;;;6.50;4.00;;;;;18.52;58.85;100662.16;4880547;29;45553;-77
2022/09/04 03:46:48;;;;;;;;;4.25;3.25;;;;;18.56;59.19;100658.38;4897036;28;45567;-77
2022/09/04 03:49:21;;;;;;;;;5.50;3.00;;;;;18.58;58.30;100657.34;4936599;28;46609;-77
2022/09/04 03:52:04;;;;;;;;;4.50;4.50;;;;;18.58;57.78;100659.16;4934983;28;45397;-77
2022/09/04 03:54:50;;;;;;;;;5.00;5.00;;;;;18.57;57.70;100660.09;4997325;28;45481;-76
2022/09/04 03:58:11;;;;;;;;;3.00;3.00;;;;;18.58;57.99;100668.03;5031163;28;45491;-76
2022/09/04 04:01:02;;;;;;;;;4.50;4.50;;;;;18.56;57.79;100677.97;4954122;28;45662;-77
2022/09/04 04:03:40;;;;;;;;;4.00;4.00;;;;;18.55;57.72;100668.22;4954974;28;45466;-77
2022/09/04 04:06:26;;;;;;;;;2.00;2.00;;;;;18.56;57.48;100666.41;4938690;28;45473;-77
2022/09/04 04:09:09;;;;;;;;;6.50;5.50;;;;;18.52;57.74;100679.06;4955297;28;45437;-76
2022/09/04 04:11:59;;;;;;;;;6.00;6.00;;;;;18.51;58.00;100672.00;4954068;28;45494;-78
2022/09/04 04:14:40;;;;;;;;;4.50;3.50;;;;;18.54;57.99;100682.56;4955016;28;45396;-77
2022/09/04 04:17:06;;;;;;;;;5.50;5.00;;;;;18.50;58.78;100686.31;4953608;28;45542;-77
2022/09/04 04:19:38;;;;;;;;;6.75;6.75;;;;;18.48;58.46;100680.19;4955545;28;45397;-77
2022/09/04 04:22:51;;;;;;;;;4.75;4.75;;;;;18.50;58.43;100680.97;4954400;28;46090;-77
2022/09/04 04:25:49;;;;;;;;;6.00;3.00;;;;;18.49;58.29;100686.41;4936887;28;45407;-76
2022/09/04 04:28:40;;;;;;;;;3.00;3.00;;;;;18.47;58.82;100673.09;4954593;28;45446;-77
2022/09/04 04:31:36;;;;;;;;;6.25;5.25;;;;;18.48;58.72;100682.88;4994821;28;45685;-77
2022/09/04 04:34:18;;;;;;;;;7.00;5.75;;;;;18.52;58.66;100678.22;5012492;28;48083;-77
2022/09/04 04:36:52;;;;;;;;;3.00;3.00;;;;;18.50;58.40;100680.97;5033165;28;45848;-76
2022/09/04 04:39:17;;;;;;;;;6.75;6.75;;;;;18.52;58.50;100689.78;5030984;28;45601;-76
2022/09/04 04:42:05;;;;;;;;;5.00;5.00;;;;;18.53;58.33;100691.53;5033781;28;45553;-76
2022/09/04 04:48:06;;;;;;;;;3.00;3.00;;;;;18.56;57.68;100696.72;5034790;28;45406;-77
2022/09/04 04:50:50;;;;;;;;;2.50;2.50;;;;;18.56;57.27;100690.50;5034902;28;45517;-77
2022/09/04 04:53:53;;;;;;;;;3.50;3.50;;;;;18.58;57.23;100696.63;5035477;28;45525;-76
2022/09/04 04:56:32;;;;;;;;;3.00;3.00;;;;;18.60;56.69;100702.78;4966531;28;45564;-77
2022/09/04 04:59:19;;;;;;;;;2.00;2.00;;;;;18.58;56.11;100700.16;4955157;28;45421;-76
2022/09/04 05:02:13;;;;;;;;;2.00;2.00;;;;;18.60;55.90;100710.81;4955244;28;45598;-76
2022/09/04 05:04:52;;;;;;;;;1.50;1.50;;;;;18.60;56.29;100716.19;4957973;28;45468;-74
2022/09/04 05:07:33;;;;;;;;;2.75;2.75;;;;;18.58;57.92;100704.66;4972629;28;45556;-75
2022/09/04 05:10:09;;;;;;;;;3.00;3.00;;;;;18.52;57.71;100716.53;4973602;28;45462;-76
2022/09/04 05:12:52;;;;;;;;;5.25;3.50;;;;;18.52;58.21;100721.03;4973360;28;45454;-74
2022/09/04 05:15:24;;;;;;;;;5.75;3.00;;;;;18.52;58.07;100726.38;4973012;28;45356;-75
2022/09/04 05:18:00;;;;;;;;;5.50;5.50;;;;;18.48;58.21;100723.00;4954066;28;45774;-76
2022/09/04 05:20:38;;;;;;;;;3.00;3.00;;;;;18.52;57.64;100723.72;4953001;28;45614;-76
2022/09/04 05:23:12;;;;;;;;;2.00;2.00;;;;;18.56;58.44;100734.19;4936886;28;45486;-75
2022/09/04 05:25:57;;;;;;;;;4.50;4.50;;;;;18.60;58.33;100727.72;4934911;28;45418;-75
2022/09/04 05:28:31;;;;;;;;;5.75;5.25;;;;;18.80;58.47;100737.41;4953615;28;45432;-77
2022/09/04 05:31:08;;;;;;;;;6.50;3.50;;;;;19.22;57.15;100740.63;4957504;28;45418;-76
2022/09/04 05:33:36;;;;;;;;;3.50;3.50;;;;;19.61;55.73;100750.13;5009201;28;45369;-75
2022/09/04 05:36:23;;;;;;;;;4.75;2.75;;;;;20.08;54.88;100747.59;5034073;28;45543;-74
2022/09/04 05:39:16;;;;;;;;;5.00;5.00;;;;;20.66;53.64;100738.81;5035183;28;45498;-75
2022/09/04 05:42:18;;;;;;;;;6.25;4.00;;;;;21.37;51.82;100744.41;5020878;28;45388;-75
2022/09/04 05:44:56;;;;;;;;;6.00;2.50;;;;;22.03;51.05;100759.06;5024672;28;45434;-75
2022/09/04 05:47:45;;;;;;;;;5.00;5.00;;;;;22.66;48.45;100751.34;5029470;28;45484;-75
2022/09/04 05:50:27;;;;;;;;;4.00;4.00;;;;;23.16;47.95;100749.69;5034255;28;45517;-75
2022/09/04 05:52:58;;;;;;;;;5.50;3.50;;;;;23.69;47.49;100756.78;5034859;28;45336;-77
2022/09/04 05:55:33;;;;;;;;;7.00;5.00;;;;;24.08;45.54;100753.03;5015221;28;45367;-76
2022/09/04 05:58:20;;;;;;;;;4.25;3.25;;;;;24.31;44.86;100758.53;5015354;28;45478;-78
2022/09/04 06:01:06;;;;;;;;;2.75;2.75;;;;;24.65;43.87;100764.97;5026583;28;46422;-79
2022/09/04 06:03:59;;;;;;;;;3.75;3.75;;;;;24.54;43.66;100759.50;5013974;28;45488;-77
2022/09/04 06:06:43;;;;;;;;;3.50;2.75;;;;;24.35;43.66;100765.41;5026076;28;45499;-73
2022/09/04 06:09:17;;;;;;;;;3.00;3.00;;;;;23.87;44.03;100773.50;5034957;28;45329;-74
2022/09/04 06:12:10;;;;;;;;;2.75;2.75;;;;;23.51;45.12;100772.44;5030328;28;46908;-76
2022/09/04 06:14:58;;;;;;;;;3.00;3.00;;;;;23.99;45.04;100774.41;5032819;28;45384;-75
2022/09/04 06:17:48;;;;;;;;;4.00;2.50;;;;;24.63;43.42;100775.03;5038701;28;45394;-74
2022/09/04 06:20:34;;;;;;;;;2.50;2.50;;;;;25.08;42.29;100768.88;5051744;28;45629;-77
2022/09/04 06:23:39;;;;;;;;;2.50;2.50;;;;;25.27;41.94;100771.03;5052976;28;45498;-75
2022/09/04 06:26:16;;;;;;;;;3.75;3.75;;;;;25.83;41.20;100777.47;5053272;28;45461;-75
2022/09/04 06:28:50;;;;;;;;;3.25;2.75;;;;;26.44;40.09;100774.25;5053356;28;45590;-76
2022/09/04 06:31:18;;;;;;;;;2.00;2.00;;;;;27.16;38.33;100785.38;5053313;28;45607;-76
2022/09/04 06:34:07;;;;;;;;;2.75;2.75;;;;;27.28;37.71;100787.03;5053845;28;45332;-75
2022/09/04 06:36:51;;;;;;;;;3.75;2.00;;;;;27.82;36.95;100790.44;5053325;28;45572;-76
2022/09/04 06:39:35;;;;;;;;;4.25;4.00;;;;;28.16;36.33;100782.84;5026825;28;45492;-76
2022/09/04 06:42:16;;;;;;;;;3.25;2.00;;;;;27.69;36.30;100779.81;5033060;28;45497;-76
2022/09/04 06:45:16;;;;;;;;;4.00;4.00;;;;;27.64;37.21;100785.66;5033226;28;46253;-76
2022/09/04 06:48:07;;;;;;;;;4.00;4.00;;;;;27.79;36.69;100793.44;4951348;28;45432;-76
2022/09/04 06:51:10;;;;;;;;;4.50;3.25;;;;;27.88;36.62;100802.59;4951849;28;45456;-76
2022/09/04 06:53:58;;;;;;;;;1.25;1.25;;;;;27.79;36.29;100802.44;4952439;28;45393;-76
2022/09/04 06:57:10;;;;;;;;;3.50;3.50;;;;;27.68;36.34;100804.38;4951575;28;45456;-76
2022/09/04 07:00:00;;;;;;;;;2.50;2.50;;;;;27.57;37.81;100805.34;4951668;28;45465;-76
2022/09/04 07:02:37;;;;;;;;;2.75;2.75;;;;;27.88;36.32;100808.91;4932890;28;45696;-76
2022/09/04 07:05:34;;;;;;;;;2.00;2.00;;;;;27.84;36.60;100802.88;4932972;28;45511;-76
2022/09/04 07:08:08;;;;;;;;;2.50;1.50;;;;;27.55;36.59;100805.47;4932827;28;45547;-77
2022/09/04 07:10:43;;;;;;;;;2.50;2.50;;;;;27.25;36.44;100800.84;4934234;28;45531;-75
2022/09/04 07:13:49;;;;;;;;;2.50;2.50;;;;;27.34;36.96;100808.22;4936038;28;45508;-76
2022/09/04 07:16:20;;;;;;;;;4.00;3.00;;;;;27.74;35.80;100803.84;4935742;28;45405;-76
2022/09/04 07:18:54;;;;;;;;;2.00;2.00;;;;;28.08;36.15;100809.84;4935414;28;46414;-76
2022/09/04 07:21:48;;;;;;;;;2.25;2.25;;;;;28.79;35.96;100816.97;4936066;28;45440;-75
2022/09/04 07:24:41;;;;;;;;;2.25;2.25;;;;;29.28;33.78;100811.50;4982553;28;45404;-76
2022/09/04 07:27:34;;;;;;;;;2.75;2.75;;;;;29.47;33.87;100817.88;4994529;28;45436;-77
2022/09/04 07:30:06;;;;;;;;;2.00;2.00;;;;;29.92;33.49;100823.47;5013076;28;46017;-75
2022/09/04 07:33:08;;;;;;;;;2.75;2.75;;;;;29.79;33.44;100828.38;5016413;28;45510;-77
2022/09/04 07:35:38;;;;;;;;;2.00;2.00;;;;;29.98;32.19;100822.00;5011554;28;45360;-76
2022/09/04 07:38:29;;;;;;;;;4.00;3.00;;;;;30.62;32.15;100828.34;5016315;28;45541;-76
2022/09/04 07:41:12;;;;;;;;;3.00;3.00;;;;;31.06;31.54;100824.00;5032673;28;45482;-77
2022/09/04 07:44:03;;;;;;;;;5.75;2.75;;;;;31.35;30.05;100819.09;5016714;28;45483;-76
2022/09/04 07:46:40;;;;;;;;;2.00;2.00;;;;;31.71;30.06;100823.59;5017408;28;45502;-76
2022/09/04 07:49:16;;;;;;;;;2.25;2.25;;;;;32.33;29.60;100831.53;5033912;28;45395;-77
2022/09/04 07:51:57;;;;;;;;;2.00;2.00;;;;;32.80;28.54;100830.13;5033524;28;45433;-77
2022/09/04 07:54:59;;;;;;;;;4.00;3.00;;;;;32.93;28.72;100827.72;5016832;28;45530;-77
2022/09/04 07:57:58;;;;;;;;;3.25;2.00;;;;;33.64;28.24;100829.84;5032984;28;45584;-77
2022/09/04 08:00:24;;;;;;;;;2.00;2.00;;;;;34.22;27.31;100837.88;5033584;28;45507;-76
2022/09/04 08:03:12;;;;;;;;;3.75;3.00;;;;;34.05;26.99;100848.06;5016231;28;48677;-77
2022/09/04 08:05:51;;;;;;;;;4.75;3.75;;;;;33.44;27.66;100846.69;5033266;28;45412;-76
2022/09/04 08:08:37;;;;;;;;;4.00;3.00;;;;;33.81;27.37;100853.47;5033514;28;45573;-76
2022/09/04 08:11:09;;;;;;;;;6.25;2.75;;;;;34.18;27.80;100849.19;5032539;28;45464;-78
2022/09/04 08:14:11;;;;;;;;;2.25;2.00;;;;;34.37;26.98;100846.22;5032943;28;45514;-77
2022/09/04 08:16:55;;;;;;;;;3.00;3.00;;;;;34.78;26.30;100849.56;5032341;28;45388;-76
2022/09/04 08:19:44;;;;;;;;;3.00;3.00;;;;;35.40;25.47;100856.75;5015772;28;45506;-76
2022/09/04 08:22:18;;;;;;;;;0.00;0.00;;;;;35.97;26.00;100864.56;5015075;28;45547;-75
2022/09/04 08:25:15;;;;;;;;;1.75;0.75;;;;;36.14;24.78;100866.06;5015329;28;46003;-78
2022/09/04 08:28:03;;;;;;;;;2.75;1.50;;;;;36.38;24.46;100856.66;5025184;28;45613;-75
2022/09/04 08:30:40;;;;;;;;;1.00;1.00;;;;;36.53;24.02;100859.34;5036020;28;45347;-77
2022/09/04 08:33:36;;;;;;;;;1.25;1.25;;;;;36.74;23.67;100854.91;5035186;28;45433;-75
2022/09/04 08:36:29;;;;;;;;;2.25;2.25;;;;;36.95;23.03;100857.69;5034755;28;45951;-76
2022/09/04 08:39:10;;;;;;;;;1.00;1.00;;;;;37.01;22.27;100863.47;5025429;28;45448;-77
2022/09/04 08:41:51;;;;;;;;;1.00;1.00;;;;;37.05;23.07;100867.50;5034448;28;45449;-77
2022/09/04 08:44:40;;;;;;;;;1.75;1.75;;;;;36.95;22.17;100870.59;5035529;28;45389;-77
2022/09/04 08:47:26;;;;;;;;;2.00;2.00;;;;;36.86;22.61;100864.38;5035396;28;45667;-77
2022/09/04 08:50:28;;;;;;;;;0.00;0.00;;;;;36.81;22.67;100866.88;5035076;28;45496;-77
2022/09/04 08:53:16;;;;;;;;;1.50;1.00;;;;;36.51;22.26;100872.47;5034946;28;45446;-77
2022/09/04 08:56:02;;;;;;;;;1.00;0.25;;;;;36.47;22.83;100871.13;5034541;28;45416;-77
2022/09/04 08:59:00;;;;;;;;;0.25;0.25;;;;;36.80;22.38;100877.03;5034897;28;46038;-76
2022/09/04 09:01:34;;;;;;;;;0.00;0.00;;;;;36.63;22.66;100878.31;5034686;28;45466;-77
2022/09/04 09:04:24;;;;;;;;;0.00;0.00;;;;;36.71;23.07;100877.34;5035183;28;45494;-76
2022/09/04 09:07:12;;;;;;;;;1.00;1.00;;;;;36.96;22.98;100875.06;5035078;28;45491;-75
2022/09/04 09:10:24;;;;;;;;;1.25;1.25;;;;;37.43;23.00;100875.47;5034992;28;45498;-77
2022/09/04 09:13:37;;;;;;;;;1.25;1.25;;;;;37.66;22.09;100876.06;5034882;28;45490;-76
2022/09/04 09:16:15;;;;;;;;;2.25;2.00;;;;;37.29;21.88;100880.91;5017107;28;45496;-76
2022/09/04 09:18:49;;;;;;;;;1.00;1.00;;;;;37.30;21.38;100879.84;5034714;28;45356;-77
2022/09/04 09:21:23;;;;;;;;;2.75;2.75;;;;;37.30;21.95;100879.84;5034018;28;46463;-77
2022/09/04 09:24:01;;;;;;;;;4.75;2.25;;;;;37.31;21.70;100881.53;5017049;28;45383;-76
2022/09/04 09:26:29;;;;;;;;;3.00;3.00;;;;;36.80;22.83;100879.78;5033854;28;45430;-76
2022/09/04 09:29:17;;;;;;;;;3.00;3.00;;;;;36.88;22.63;100877.94;5034587;28;45616;-76
2022/09/04 09:32:10;;;;;;;;;1.50;1.50;;;;;37.22;22.34;100874.44;5034273;28;46297;-77
2022/09/04 09:35:12;;;;;;;;;2.25;1.50;;;;;37.34;22.72;100878.38;5034400;28;45551;-79
2022/09/04 09:37:49;;;;;;;;;1.75;1.75;;;;;37.51;22.54;100878.09;5035091;28;45841;-76
2022/09/04 09:40:41;;;;;;;;;2.25;2.25;;;;;37.43;21.54;100875.47;5033592;28;45443;-78
2022/09/04 09:43:32;;;;;;;;;1.00;1.00;;;;;37.60;20.95;100882.38;5034290;28;45372;-78
2022/09/04 09:46:15;;;;;;;;;2.00;2.00;;;;;37.51;21.97;100878.09;5034692;28;45502;-78
2022/09/04 09:49:06;;;;;;;;;2.00;2.00;;;;;37.38;21.47;100883.50;5034451;28;45536;-78
2022/09/04 09:51:31;;;;;;;;;3.00;1.00;;;;;37.16;21.70;100880.75;5034151;28;45470;-78
2022/09/04 09:54:24;;;;;;;;;1.00;1.00;;;;;37.23;22.21;100875.28;5033576;28;46245;-78
2022/09/04 09:57:20;;;;;;;;;2.75;1.75;;;;;37.23;21.82;100887.22;5033523;28;45383;-79
2022/09/04 10:00:09;;;;;;;;;1.50;1.50;;;;;37.08;21.79;100884.50;5034433;28;45482;-79
2022/09/04 10:03:12;;;;;;;;;1.00;1.00;;;;;36.63;21.63;100876.41;5033954;28;45417;-80
2022/09/04 10:05:47;;;;;;;;;2.50;1.75;;;;;36.21;21.91;100883.50;5034115;28;45513;-80
2022/09/04 10:08:15;;;;;;;;;1.00;1.00;;;;;36.35;22.35;100872.69;5033717;28;45396;-79
2022/09/04 10:10:50;;;;;;;;;1.00;1.00;;;;;36.55;22.85;100865.53;5015448;28;45376;-78
2022/09/04 10:13:52;;;;;;;;;0.00;0.00;;;;;36.75;22.22;100865.75;5036048;28;45557;-78
2022/09/04 10:16:34;;;;;;;;;1.50;1.50;;;;;36.52;22.46;100860.41;5033947;28;46353;-79
2022/09/04 10:19:34;;;;;;;;;1.00;1.00;;;;;36.62;22.56;100865.59;5034298;28;45316;-79
2022/09/04 10:22:29;;;;;;;;;2.00;2.00;;;;;36.87;22.69;100867.97;5033987;28;45455;-77
2022/09/04 10:25:08;;;;;;;;;1.25;1.25;;;;;36.95;22.14;100867.84;4935947;28;45582;-78
2022/09/04 10:27:45;;;;;;;;;1.25;1.25;;;;;37.05;22.21;100850.97;4951390;28;46297;-78
2022/09/04 10:30:22;;;;;;;;;1.25;1.25;;;;;36.78;22.41;100851.59;4952763;28;45551;-77
2022/09/04 10:33:03;;;;;;;;;1.00;1.00;;;;;36.73;22.34;100858.72;4952749;28;45553;-78
2022/09/04 10:35:52;;;;;;;;;2.25;2.00;;;;;36.90;22.08;100859.34;4952183;28;45496;-79
2022/09/04 10:38:30;;;;;;;;;0.25;0.25;;;;;37.11;23.14;100844.69;4952305;28;45563;-76
2022/09/04 10:41:37;;;;;;;;;1.00;1.00;;;;;37.50;22.22;100846.06;4952132;28;45559;-76
2022/09/04 10:44:23;;;;;;;;;5.25;4.00;;;;;37.69;22.09;100850.84;4886061;28;45455;-75
2022/09/04 10:47:07;;;;;;;;;3.00;3.00;;;;;37.75;22.42;100837.34;4956372;28;45565;-76
2022/09/04 10:50:11;;;;;;;;;2.50;1.75;;;;;37.44;21.38;100849.63;4955623;28;45493;-79
2022/09/04 10:52:56;;;;;;;;;1.00;1.00;;;;;37.30;21.71;100849.53;4954867;28;45370;-76
2022/09/04 10:55:49;;;;;;;;;2.50;2.50;;;;;37.50;22.56;100837.78;4955681;28;45389;-78
2022/09/04 10:58:45;;;;;;;;;1.00;1.00;;;;;37.72;21.97;100840.50;4955820;28;45489;-78
2022/09/04 11:01:25;;;;;;;;;0.00;0.00;;;;;37.23;23.15;100836.72;4982835;28;46151;-77
2022/09/04 11:04:17;;;;;;;;;0.50;0.50;;;;;37.43;22.92;100837.78;5036651;28;45516;-78
2022/09/04 11:07:24;;;;;;;;;1.00;1.00;;;;;37.66;22.30;100834.72;4919389;28;45660;-78
2022/09/04 11:10:18;;;;;;;;;2.00;2.00;;;;;37.36;21.96;100825.00;4938849;28;45507;-78
2022/09/04 11:12:55;;;;;;;;;1.00;1.00;;;;;37.46;22.38;100833.72;4922558;28;45475;-77
2022/09/04 11:15:32;;;;;;;;;1.00;1.00;;;;;37.77;22.21;100832.47;4936311;28;45432;-78
2022/09/04 11:18:02;;;;;;;;;2.00;2.00;;;;;37.66;22.20;100836.63;4936136;28;45457;-78
2022/09/04 11:20:55;;;;;;;;;2.25;2.25;;;;;37.86;22.41;100826.56;4919935;28;45701;-78
2022/09/04 11:23:42;;;;;;;;;0.00;0.00;;;;;37.93;21.43;100823.88;4936361;28;45657;-79
2022/09/04 11:26:44;;;;;;;;;2.00;2.00;;;;;37.93;21.15;100818.34;4935501;28;45528;-76
2022/09/04 11:29:19;;;;;;;;;2.00;2.00;;;;;37.77;21.93;100826.97;4936384;28;45533;-76
2022/09/04 11:32:00;;;;;;;;;1.75;1.75;;;;;38.00;22.69;100819.22;4935722;28;45514;-77
2022/09/04 11:35:07;;;;;;;;;1.00;1.00;;;;;37.72;21.62;100821.19;4919764;28;48769;-76
2022/09/04 11:38:23;;;;;;;;;1.00;1.00;;;;;37.39;23.39;100819.09;4859242;29;45461;-76
2022/09/04 11:41:03;;;;;;;;;2.00;2.00;;;;;37.48;21.61;100818.72;4822359;29;45614;-75
2022/09/04 11:43:29;;;;;;;;;4.00;2.50;;;;;37.30;22.42;100818.38;4849176;29;45556;-76
2022/09/04 11:46:21;;;;;;;;;2.00;2.00;;;;;37.02;22.64;100813.72;4878177;29;46021;-75
2022/09/04 11:49:18;;;;;;;;;1.25;1.25;;;;;37.26;23.22;100809.69;4878256;29;45369;-77
2022/09/04 11:51:44;;;;;;;;;1.00;1.00;;;;;37.46;22.65;100809.81;4877980;29;45439;-76
2022/09/04 11:54:27;;;;;;;;;1.75;1.75;;;;;37.62;23.65;100814.13;4878373;29;45550;-76
2022/09/04 11:57:24;;;;;;;;;2.00;2.00;;;;;37.91;21.75;100814.94;4876665;29;46167;-76
2022/09/04 12:00:10;;;;;;;;;3.00;2.75;;;;;37.81;21.41;100812.56;4877970;29;45442;-76
2022/09/04 12:03:14;;;;;;;;;1.00;1.00;;;;;37.83;21.96;100812.38;4878151;29;45444;-77
2022/09/04 12:05:53;;;;;;;;;2.00;2.00;;;;;37.88;21.85;100811.75;4878412;29;45572;-76
2022/09/04 12:08:31;;;;;;;;;3.75;3.00;;;;;37.65;21.74;100807.38;4878688;29;46274;-76
2022/09/04 12:11:20;;;;;;;;;2.00;2.00;;;;;37.14;21.91;100819.50;4877613;29;45487;-76
2022/09/04 12:13:57;;;;;;;;;1.75;1.75;;;;;36.64;22.24;100817.56;4889436;28;45401;-77
2022/09/04 12:16:38;;;;;;;;;0.25;0.25;;;;;35.90;23.25;100812.25;5002480;28;45483;-76
2022/09/04 12:19:41;;;;;;;;;3.00;3.00;;;;;35.31;23.28;100816.69;5035148;28;45464;-77
2022/09/04 12:22:22;;;;;;;;;2.00;2.00;;;;;35.08;24.59;100808.47;5034848;28;45412;-76
2022/09/04 12:24:50;;;;;;;;;3.00;3.00;;;;;34.93;25.21;100802.09;5035520;28;45566;-76
2022/09/04 12:27:27;;;;;;;;;4.75;3.00;;;;;34.79;24.52;100796.38;5035376;28;45461;-77
2022/09/04 12:30:04;;;;;;;;;3.75;2.25;;;;;34.62;25.18;100800.25;5017285;28;46282;-76
2022/09/04 12:32:32;;;;;;;;;3.00;2.00;;;;;34.43;25.46;100793.38;5035610;28;45384;-76
2022/09/04 12:35:33;;;;;;;;;2.50;2.50;;;;;34.12;25.11;100792.34;5035482;28;45381;-76
2022/09/04 12:38:34;;;;;;;;;1.50;1.50;;;;;33.59;25.89;100796.66;5035570;28;45491;-78
2022/09/04 12:41:32;;;;;;;;;2.50;2.50;;;;;33.11;26.82;100802.88;4953530;28;46159;-76
2022/09/04 12:44:46;;;;;;;;;3.50;3.25;;;;;33.11;27.44;100800.16;4896695;29;45474;-77
2022/09/04 12:47:27;;;;;;;;;2.25;2.25;;;;;33.20;27.02;100801.03;4839576;29;45371;-77
2022/09/04 12:50:01;;;;;;;;;2.50;2.50;;;;;33.03;27.16;100805.66;4840303;29;45746;-78
2022/09/04 12:52:35;;;;;;;;;1.75;1.75;;;;;32.97;27.71;100803.59;4840911;29;46184;-77